Time;durP1;ratioP1;P1;durP2;ratioP2;P2;SDS_P1;SDS_P2;PMS_P1;PMS_P2;Temp;Humidity;BMP_temperature;BMP_pressure;BME280_temperature;BME280_humidity;BME280_pressure;Samples;Min_cycle;Max_cycle;Signal;HPM_P1;HPM_P2
2023/08/19 00:02:15;;;;;;;;;;;;;;;21.51;100.00;101138.53;5057573;28;20161;-59
2023/08/19 00:04:40;;;;;;;;;;;;;;;21.48;100.00;101136.78;5049731;28;19915;-59
2023/08/19 00:07:05;;;;;;;;;;;;;;;21.47;100.00;101126.19;5055281;28;19915;-59
2023/08/19 00:09:34;;;;;;;;;;;;;;;21.48;100.00;101133.28;5053489;28;20004;-59
2023/08/19 00:12:00;;;;;;;;;;;;;;;21.48;100.00;101141.22;5060676;28;19983;-58
2023/08/19 00:14:25;;;;;;;;;;;;;;;21.49;100.00;101127.03;5063184;28;20102;-59
2023/08/19 00:16:50;;;;;;;;;;;;;;;21.48;99.98;101127.97;5045518;28;19950;-59
2023/08/19 00:19:15;;;;;;;;;;;;;;;21.45;100.00;101133.28;5059179;28;20170;-59
2023/08/19 00:21:40;;;;;;;;;;;;;;;21.43;100.00;101137.75;5062058;28;19936;-59
2023/08/19 00:24:06;;;;;;;;;;;;;;;21.42;100.00;101134.25;5058285;28;19912;-59
2023/08/19 00:26:31;;;;;;;;;;;;;;;21.40;100.00;101129.88;5055718;28;19916;-59
2023/08/19 00:28:56;;;;;;;;;;;;;;;21.36;100.00;101131.66;5056232;28;19916;-59
2023/08/19 00:31:23;;;;;;;;;;;;;;;21.36;100.00;101132.56;5059599;28;19916;-58
2023/08/19 00:33:48;;;;;;;;;;;;;;;21.36;100.00;101134.31;5058752;28;19905;-59
2023/08/19 00:36:13;;;;;;;;;;;;;;;21.34;100.00;101126.41;5059954;28;19960;-58
2023/08/19 00:38:38;;;;;;;;;;;;;;;21.35;100.00;101135.25;5056418;28;20198;-59
2023/08/19 00:41:04;;;;;;;;;;;;;;;21.33;100.00;101124.66;5059902;28;19954;-58
2023/08/19 00:43:30;;;;;;;;;;;;;;;21.33;100.00;101129.97;5058474;28;19921;-59
2023/08/19 00:45:55;;;;;;;;;;;;;;;21.32;100.00;101132.63;5058642;28;19959;-57
2023/08/19 00:48:21;;;;;;;;;;;;;;;21.30;100.00;101135.28;5059891;28;20142;-58
2023/08/19 00:50:47;;;;;;;;;;;;;;;21.30;100.00;101137.09;5056662;28;19916;-59
2023/08/19 00:53:12;;;;;;;;;;;;;;;21.27;100.00;101127.41;5060728;28;20201;-59
2023/08/19 00:55:37;;;;;;;;;;;;;;;21.25;100.00;101134.50;5054164;28;19921;-59
2023/08/19 00:58:07;;;;;;;;;;;;;;;21.23;100.00;101131.00;5058519;28;20173;-59
2023/08/19 01:00:33;;;;;;;;;;;;;;;21.23;100.00;101128.34;5058397;28;20070;-57
2023/08/19 01:02:59;;;;;;;;;;;;;;;21.22;100.00;101125.72;5058787;28;19940;-58
2023/08/19 01:05:28;;;;;;;;;;;;;;;21.22;100.00;101125.72;5058588;28;19931;-59
2023/08/19 01:07:59;;;;;;;;;;;;;;;21.21;100.00;101118.69;5061080;28;19980;-58
2023/08/19 01:10:32;;;;;;;;;;;;;;;21.19;100.00;101116.06;5056234;28;20079;-58
2023/08/19 01:13:03;;;;;;;;;;;;;;;21.18;100.00;101119.59;5056156;28;19920;-59
2023/08/19 01:15:31;;;;;;;;;;;;;;;21.17;100.00;101118.75;5038849;28;19916;-58
2023/08/19 01:17:58;;;;;;;;;;;;;;;21.14;100.00;101117.91;5057761;28;19944;-58
2023/08/19 01:20:29;;;;;;;;;;;;;;;21.12;100.00;101114.41;5056679;28;20150;-59
2023/08/19 01:23:15;;;;;;;;;;;;;;;21.11;100.00;101113.53;5052273;28;19916;-59
2023/08/19 01:25:42;;;;;;;;;;;;;;;21.12;100.00;101109.13;5055969;28;20101;-58
2023/08/19 01:28:07;;;;;;;;;;;;;;;21.11;100.00;101104.72;5056201;28;19955;-59
2023/08/19 01:30:33;;;;;;;;;;;;;;;21.11;100.00;101107.34;5056424;28;19908;-59
2023/08/19 01:32:59;;;;;;;;;;;;;;;21.12;100.00;101099.38;5056073;28;19930;-58
2023/08/19 01:35:24;;;;;;;;;;;;;;;21.13;100.00;101100.25;5054156;28;19955;-58
2023/08/19 01:37:52;;;;;;;;;;;;;;;21.13;100.00;101092.28;5055135;28;19951;-58
2023/08/19 01:40:19;;;;;;;;;;;;;;;21.14;100.00;101083.44;5056516;28;20116;-59
2023/08/19 01:42:44;;;;;;;;;;;;;;;21.15;100.00;101082.56;5059348;28;19943;-58
2023/08/19 01:45:10;;;;;;;;;;;;;;;21.16;100.00;101079.00;5057740;28;19921;-58
2023/08/19 01:47:39;;;;;;;;;;;;;;;21.17;100.00;101086.06;5059462;28;19928;-58
2023/08/19 01:50:07;;;;;;;;;;;;;;;21.18;100.00;101087.81;5055743;28;20155;-58
2023/08/19 01:52:33;;;;;;;;;;;;;;;21.16;100.00;101079.88;5048738;28;19913;-58
2023/08/19 01:54:58;;;;;;;;;;;;;;;21.17;100.00;101080.75;5048318;28;20000;-58
2023/08/19 01:57:26;;;;;;;;;;;;;;;21.19;100.00;101078.97;5056116;28;19931;-58
2023/08/19 01:59:52;;;;;;;;;;;;;;;21.20;100.00;101080.69;5058228;28;19908;-58
2023/08/19 02:02:17;;;;;;;;;;;;;;;21.19;100.00;101077.19;5057002;28;19916;-58
2023/08/19 02:04:42;;;;;;;;;;;;;;;21.21;100.00;101077.16;5058847;28;20114;-58
2023/08/19 02:07:07;;;;;;;;;;;;;;;21.24;100.00;101074.44;5061477;28;20224;-58
2023/08/19 02:09:32;;;;;;;;;;;;;;;21.24;100.00;101073.59;5053964;28;20010;-59
2023/08/19 02:11:58;;;;;;;;;;;;;;;21.26;100.00;101067.38;5060012;28;19909;-58
2023/08/19 02:14:23;;;;;;;;;;;;;;;21.28;100.00;101068.19;5062857;28;20166;-59
2023/08/19 02:16:48;;;;;;;;;;;;;;;21.29;100.00;101069.06;5061486;28;19913;-59
2023/08/19 02:19:13;;;;;;;;;;;;;;;21.30;100.00;101074.34;5056250;28;20062;-58
2023/08/19 02:21:38;;;;;;;;;;;;;;;21.31;100.00;101073.44;5055030;28;19913;-58
2023/08/19 02:24:04;;;;;;;;;;;;;;;21.31;100.00;101062.84;5059481;28;19952;-59
2023/08/19 02:26:29;;;;;;;;;;;;;;;21.33;100.00;101065.47;5058191;28;19928;-59
2023/08/19 02:28:54;;;;;;;;;;;;;;;21.33;100.00;101063.72;5050611;28;19916;-59
2023/08/19 02:31:19;;;;;;;;;;;;;;;21.34;100.00;101061.91;5059240;28;20177;-58
2023/08/19 02:33:45;;;;;;;;;;;;;;;21.33;100.00;101053.09;5049571;28;19916;-58
2023/08/19 02:36:12;;;;;;;;;;;;;;;21.33;100.00;101058.41;5059512;28;20122;-58
2023/08/19 02:38:37;;;;;;;;;;;;;;;21.34;100.00;101052.19;5054233;28;19979;-59
2023/08/19 02:41:02;;;;;;;;;;;;;;;21.34;100.00;101049.53;5061116;28;19924;-59
2023/08/19 02:43:27;;;;;;;;;;;;;;;21.35;100.00;101053.06;5059692;28;20166;-59
2023/08/19 02:45:53;;;;;;;;;;;;;;;21.34;100.00;101052.19;5060653;28;19916;-58
2023/08/19 02:48:18;;;;;;;;;;;;;;;21.35;100.00;101047.78;5057155;28;19909;-58
2023/08/19 02:50:43;;;;;;;;;;;;;;;21.37;100.00;101046.81;5059076;28;19972;-59
2023/08/19 02:53:09;;;;;;;;;;;;;;;21.39;100.00;101043.28;5055931;28;19965;-59
2023/08/19 02:55:38;;;;;;;;;;;;;;;21.40;100.00;101047.69;5054919;28;19976;-58
2023/08/19 02:58:04;;;;;;;;;;;;;;;21.40;100.00;101045.91;5056468;28;19917;-58
2023/08/19 03:00:29;;;;;;;;;;;;;;;21.39;100.00;101048.56;5057074;28;19923;-59
2023/08/19 03:02:54;;;;;;;;;;;;;;;21.37;100.00;101044.16;5057349;28;19971;-58
2023/08/19 03:05:20;;;;;;;;;;;;;;;21.36;100.00;101039.78;5058150;28;19921;-59
2023/08/19 03:07:45;;;;;;;;;;;;;;;21.36;100.00;101041.53;5057261;28;19908;-59
2023/08/19 03:10:10;;;;;;;;;;;;;;;21.37;100.00;101041.50;5035673;28;19920;-59
2023/08/19 03:12:35;;;;;;;;;;;;;;;21.39;100.00;101046.78;5054566;28;19956;-59
2023/08/19 03:15:01;;;;;;;;;;;;;;;21.38;100.00;101045.06;5060921;28;19927;-59
2023/08/19 03:17:26;;;;;;;;;;;;;;;21.39;100.00;101043.28;5058128;28;19919;-58
2023/08/19 03:19:51;;;;;;;;;;;;;;;21.38;100.00;101042.41;5058027;28;19948;-59
2023/08/19 03:22:16;;;;;;;;;;;;;;;21.39;100.00;101038.84;5055008;28;19915;-58
2023/08/19 03:24:41;;;;;;;;;;;;;;;21.36;100.00;101029.19;5043615;28;19909;-58
2023/08/19 03:27:06;;;;;;;;;;;;;;;21.35;100.00;101027.44;5055725;28;20144;-58
2023/08/19 03:29:32;;;;;;;;;;;;;;;21.35;100.00;101024.78;5058730;28;19940;-58
2023/08/19 03:31:57;;;;;;;;;;;;;;;21.35;100.00;101032.72;5056421;28;19909;-58
2023/08/19 03:34:22;;;;;;;;;;;;;;;21.36;100.00;101037.13;5060240;28;20166;-58
2023/08/19 03:36:48;;;;;;;;;;;;;;;21.35;100.00;101037.16;5060909;28;19909;-59
2023/08/19 03:39:13;;;;;;;;;;;;;;;21.35;100.00;101031.88;5057955;28;19908;-58
2023/08/19 03:41:38;;;;;;;;;;;;;;;21.33;100.00;101039.84;5048444;28;19913;-58
2023/08/19 03:44:03;;;;;;;;;;;;;;;21.32;100.00;101038.09;5054251;28;19908;-58
2023/08/19 03:46:29;;;;;;;;;;;;;;;21.31;100.00;101046.94;5057720;28;20139;-59
2023/08/19 03:48:54;;;;;;;;;;;;;;;21.31;100.00;101046.06;5056993;28;20125;-59
2023/08/19 03:51:19;;;;;;;;;;;;;;;21.30;100.00;101044.31;5060680;28;20078;-58
2023/08/19 03:53:44;;;;;;;;;;;;;;;21.29;100.00;101034.59;5059043;28;20220;-59
2023/08/19 03:56:09;;;;;;;;;;;;;;;21.29;100.00;101037.25;5062150;28;19916;-59
2023/08/19 03:58:34;;;;;;;;;;;;;;;21.29;100.00;101037.25;5055400;28;19912;-59
2023/08/19 04:01:06;;;;;;;;;;;;;;;21.29;100.00;101043.44;5060868;28;19932;-58
2023/08/19 04:03:32;;;;;;;;;;;;;;;21.29;100.00;101043.44;5055915;28;19908;-58
2023/08/19 04:05:57;;;;;;;;;;;;;;;21.29;100.00;101045.22;5055072;28;20162;-59
2023/08/19 04:08:22;;;;;;;;;;;;;;;21.27;100.00;101042.59;5063852;28;20040;-58
2023/08/19 04:10:47;;;;;;;;;;;;;;;21.25;100.00;101041.75;5062344;28;19916;-59
2023/08/19 04:13:12;;;;;;;;;;;;;;;21.25;100.00;101040.88;5061185;28;19913;-58
2023/08/19 04:15:37;;;;;;;;;;;;;;;21.23;100.00;101048.84;5055802;28;20036;-58
2023/08/19 04:18:03;;;;;;;;;;;;;;;21.22;100.00;101044.47;5057254;28;19924;-58
2023/08/19 04:20:28;;;;;;;;;;;;;;;21.22;100.00;101044.47;5058038;28;19970;-58
2023/08/19 04:22:53;;;;;;;;;;;;;;;21.20;100.00;101051.53;5058891;28;19976;-58
2023/08/19 04:25:19;;;;;;;;;;;;;;;21.18;100.00;101054.22;5052665;28;19909;-58
2023/08/19 04:27:44;;;;;;;;;;;;;;;21.18;100.00;101051.56;5054647;28;20138;-58
2023/08/19 04:30:10;;;;;;;;;;;;;;;21.19;100.00;101049.81;5062849;28;19908;-58
2023/08/19 04:32:35;;;;;;;;;;;;;;;21.17;100.00;101051.59;5059557;28;19962;-58
2023/08/19 04:35:00;;;;;;;;;;;;;;;21.18;100.00;101056.00;5057305;28;19954;-58
2023/08/19 04:37:26;;;;;;;;;;;;;;;21.19;100.00;101055.13;5056226;28;20213;-58
2023/08/19 04:39:52;;;;;;;;;;;;;;;21.18;100.00;101051.56;5061319;28;20183;-58
2023/08/19 04:42:18;;;;;;;;;;;;;;;21.19;100.00;101055.13;5063044;28;20089;-59
2023/08/19 04:44:43;;;;;;;;;;;;;;;21.19;100.00;101060.41;5062240;28;20019;-58
2023/08/19 04:47:09;;;;;;;;;;;;;;;21.19;100.00;101057.78;5055942;28;20062;-59
2023/08/19 04:49:34;;;;;;;;;;;;;;;21.19;100.00;101063.06;5058895;28;19917;-59
2023/08/19 04:51:59;;;;;;;;;;;;;;;21.16;100.00;101058.69;5056792;28;19971;-59
2023/08/19 04:54:25;;;;;;;;;;;;;;;21.15;100.00;101056.94;5058176;28;19925;-59
2023/08/19 04:56:50;;;;;;;;;;;;;;;21.14;100.00;101054.31;5037789;28;19913;-59
2023/08/19 04:59:16;;;;;;;;;;;;;;;21.15;100.00;101056.06;5038013;28;19955;-58
2023/08/19 05:01:41;;;;;;;;;;;;;;;21.14;100.00;101049.00;5036525;28;20122;-58
2023/08/19 05:04:06;;;;;;;;;;;;;;;21.15;100.00;101045.47;5058288;28;19966;-58
2023/08/19 05:06:31;;;;;;;;;;;;;;;21.17;100.00;101048.94;5061728;28;19962;-59
2023/08/19 05:08:56;;;;;;;;;;;;;;;21.19;100.00;101055.13;5057091;28;20158;-59
2023/08/19 05:11:22;;;;;;;;;;;;;;;21.21;100.00;101060.38;5057189;28;19971;-58
2023/08/19 05:13:47;;;;;;;;;;;;;;;21.22;100.00;101057.72;5055986;28;19963;-59
2023/08/19 05:16:12;;;;;;;;;;;;;;;21.23;100.00;101070.03;5056206;28;19944;-59
2023/08/19 05:18:37;;;;;;;;;;;;;;;21.22;100.00;101063.00;5055565;28;20077;-58
2023/08/19 05:21:03;;;;;;;;;;;;;;;21.25;100.00;101070.03;5055034;28;19955;-59
2023/08/19 05:23:28;;;;;;;;;;;;;;;21.25;100.00;101057.66;5055100;28;19947;-59
2023/08/19 05:25:53;;;;;;;;;;;;;;;21.26;100.00;101067.38;5055271;28;20150;-59
2023/08/19 05:28:19;;;;;;;;;;;;;;;21.28;100.00;101075.28;5057679;28;20157;-59
2023/08/19 05:30:44;;;;;;;;;;;;;;;21.27;100.00;101071.75;5057478;28;19920;-59
2023/08/19 05:33:09;;;;;;;;;;;;;;;21.28;100.00;101076.16;5036150;28;19950;-58
2023/08/19 05:35:34;;;;;;;;;;;;;;;21.27;100.00;101071.75;5055028;28;19909;-59
2023/08/19 05:38:00;;;;;;;;;;;;;;;21.31;100.00;101076.09;5059824;28;19995;-59
2023/08/19 05:40:25;;;;;;;;;;;;;;;21.33;100.00;101078.72;5059418;28;20238;-58
2023/08/19 05:42:50;;;;;;;;;;;;;;;21.35;100.00;101077.78;5059983;28;20040;-58
2023/08/19 05:45:15;;;;;;;;;;;;;;;21.35;100.00;101069.84;5055921;28;19924;-58
2023/08/19 05:47:41;;;;;;;;;;;;;;;21.37;100.00;101069.81;5057458;28;20187;-58
2023/08/19 05:50:07;;;;;;;;;;;;;;;21.38;100.00;101071.56;5052477;28;19917;-59
2023/08/19 05:52:32;;;;;;;;;;;;;;;21.39;100.00;101080.38;5058975;28;20154;-59
2023/08/19 05:54:57;;;;;;;;;;;;;;;21.42;100.00;101075.03;5059192;28;20154;-59
2023/08/19 05:57:23;;;;;;;;;;;;;;;21.43;100.00;101074.13;5052065;28;19909;-59
2023/08/19 05:59:48;;;;;;;;;;;;;;;21.44;100.00;101070.59;5057197;28;20127;-59
2023/08/19 06:02:14;;;;;;;;;;;;;;;21.44;100.00;101075.88;5063591;28;20136;-58
2023/08/19 06:04:40;;;;;;;;;;;;;;;21.47;100.00;101084.66;5062650;28;19908;-59
2023/08/19 06:07:05;;;;;;;;;;;;;;;21.48;100.00;101080.25;5061597;28;19940;-57
2023/08/19 06:09:30;;;;;;;;;;;;;;;21.53;100.00;101089.00;5062879;28;19950;-57
2023/08/19 06:11:56;;;;;;;;;;;;;;;21.56;100.00;101088.94;5059839;28;20071;-57
2023/08/19 06:14:21;;;;;;;;;;;;;;;21.60;100.00;101088.00;5037543;28;19936;-59
2023/08/19 06:16:46;;;;;;;;;;;;;;;21.63;100.00;101090.59;5036584;28;19916;-58
2023/08/19 06:19:12;;;;;;;;;;;;;;;21.67;100.00;101097.59;5040811;28;20135;-58
2023/08/19 06:21:38;;;;;;;;;;;;;;;21.70;100.00;101096.66;5033723;28;19909;-59
2023/08/19 06:24:37;;;;;;;;;;;;;;;21.78;100.00;101105.31;5030889;28;20135;-59
2023/08/19 06:26:55;;;;;;;;;;;;;;;21.83;100.00;101092.00;5032501;28;20258;-59
2023/08/19 06:29:20;;;;;;;;;;;;;;;21.86;100.00;101107.84;5037973;28;19932;-58
2023/08/19 06:31:46;;;;;;;;;;;;;;;21.91;100.00;101103.31;5040189;28;19987;-58
2023/08/19 06:34:12;;;;;;;;;;;;;;;21.94;100.00;101108.59;5038023;28;19909;-59
2023/08/19 06:36:39;;;;;;;;;;;;;;;21.99;100.00;101117.31;5030848;28;19915;-58
2023/08/19 06:39:12;;;;;;;;;;;;;;;22.03;100.00;101116.34;5026462;28;19925;-59
2023/08/19 06:41:38;;;;;;;;;;;;;;;22.11;100.00;101120.63;5040193;28;19940;-58
2023/08/19 06:44:06;;;;;;;;;;;;;;;22.15;100.00;101125.84;5025412;28;19940;-59
2023/08/19 06:46:32;;;;;;;;;;;;;;;22.22;100.00;101123.97;5038504;28;19959;-58
2023/08/19 06:48:58;;;;;;;;;;;;;;;22.31;100.00;101131.72;5027715;28;20306;-59
2023/08/19 06:51:24;;;;;;;;;;;;;;;22.40;100.00;101134.22;5035498;28;19943;-59
2023/08/19 06:53:49;;;;;;;;;;;;;;;22.51;100.00;101134.00;5034231;28;19909;-59
2023/08/19 06:56:33;;;;;;;;;;;;;;;22.58;100.00;101140.06;5034611;28;19909;-58
2023/08/19 06:59:02;;;;;;;;;;;;;;;22.67;100.00;101141.63;5037118;28;19917;-59
2023/08/19 07:01:30;;;;;;;;;;;;;;;22.72;100.00;101137.06;5036266;28;20007;-58
2023/08/19 07:03:56;;;;;;;;;;;;;;;22.79;100.00;101145.78;5040659;28;19913;-59
2023/08/19 07:06:21;;;;;;;;;;;;;;;22.83;100.00;101145.69;5039347;28;19928;-58
2023/08/19 07:08:47;;;;;;;;;;;;;;;22.88;100.00;101142.91;5038461;28;20146;-58
2023/08/19 07:11:12;;;;;;;;;;;;;;;22.92;100.00;101148.13;5040482;28;19916;-58
2023/08/19 07:13:38;;;;;;;;;;;;;;;22.95;100.00;101149.84;5055506;28;19908;-59
2023/08/19 07:16:04;;;;;;;;;;;;;;;23.00;100.00;101145.31;5063020;28;19962;-59
2023/08/19 07:18:38;;;;;;;;;;;;;;;23.07;100.00;101143.34;5052834;28;19909;-58
2023/08/19 07:21:04;;;;;;;;;;;;;;;23.15;100.00;101153.84;5052203;28;19955;-58
2023/08/19 07:23:29;;;;;;;;;;;;;;;23.24;100.00;101149.16;5062576;28;20185;-59
2023/08/19 07:25:55;;;;;;;;;;;;;;;23.37;100.00;101144.44;5063506;28;19908;-59
2023/08/19 07:28:22;;;;;;;;;;;;;;;23.55;100.00;101150.19;5059377;28;19909;-59
2023/08/19 07:30:47;;;;;;;;;;;;;;;23.72;100.00;101153.31;5056293;28;19936;-59
2023/08/19 07:33:13;;;;;;;;;;;;;;;23.88;100.00;101147.59;5057729;28;19917;-60
2023/08/19 07:35:41;;;;;;;;;;;;;;;23.97;99.04;101136.72;5054009;28;19940;-59
2023/08/19 07:38:06;;;;;;;;;;;;;;;24.03;100.00;101163.16;5058497;28;19916;-59
2023/08/19 07:40:32;;;;;;;;;;;;;;;24.09;99.64;101172.78;5058422;28;20316;-59
2023/08/19 07:42:57;;;;;;;;;;;;;;;24.17;98.90;101181.41;5059660;28;19936;-58
2023/08/19 07:45:22;;;;;;;;;;;;;;;24.26;99.23;101185.59;5054581;28;19976;-59
2023/08/19 07:47:48;;;;;;;;;;;;;;;24.32;98.96;101182.78;5048644;28;19996;-58
2023/08/19 07:50:13;;;;;;;;;;;;;;;24.39;98.80;101176.34;5052438;28;19909;-59
2023/08/19 07:52:38;;;;;;;;;;;;;;;24.43;99.43;101180.69;5049362;28;19913;-58
2023/08/19 07:55:04;;;;;;;;;;;;;;;24.48;97.95;101191.19;5053750;28;19928;-59
2023/08/19 07:57:29;;;;;;;;;;;;;;;24.52;97.91;101194.63;5060038;28;19955;-59
2023/08/19 07:59:54;;;;;;;;;;;;;;;24.53;97.79;101185.72;5060010;28;20074;-59
2023/08/19 08:02:20;;;;;;;;;;;;;;;24.53;98.00;101194.59;5059805;28;19936;-59
2023/08/19 08:04:45;;;;;;;;;;;;;;;24.54;98.14;101180.34;5057801;28;20057;-59
2023/08/19 08:07:10;;;;;;;;;;;;;;;24.57;97.98;101176.72;5060927;28;19931;-59
2023/08/19 08:09:37;;;;;;;;;;;;;;;24.56;97.86;101170.50;5056613;28;19921;-59
2023/08/19 08:12:03;;;;;;;;;;;;;;;24.57;97.85;101190.06;5057124;28;19913;-58
2023/08/19 08:14:28;;;;;;;;;;;;;;;24.60;98.21;101179.34;5057231;28;19971;-58
2023/08/19 08:16:56;;;;;;;;;;;;;;;24.62;98.18;101197.03;5057204;28;20235;-58
2023/08/19 08:19:22;;;;;;;;;;;;;;;24.63;98.05;101193.44;5063410;28;20162;-58
2023/08/19 08:21:47;;;;;;;;;;;;;;;24.65;98.20;101188.94;5061959;28;19923;-58
2023/08/19 08:24:12;;;;;;;;;;;;;;;24.65;98.15;101193.38;5060029;28;19916;-59
2023/08/19 08:26:37;;;;;;;;;;;;;;;24.66;98.19;101195.13;5059821;28;19960;-59
2023/08/19 08:29:03;;;;;;;;;;;;;;;24.67;98.53;101207.53;5061299;28;20117;-59
2023/08/19 08:31:28;;;;;;;;;;;;;;;24.69;98.31;101213.69;5062609;28;19912;-59
2023/08/19 08:33:53;;;;;;;;;;;;;;;24.72;98.59;101221.59;5060083;28;19995;-59
2023/08/19 08:36:18;;;;;;;;;;;;;;;24.75;98.26;101226.84;5059285;28;19916;-59
2023/08/19 08:38:44;;;;;;;;;;;;;;;24.74;97.73;101201.13;5059750;28;20162;-59
2023/08/19 08:41:09;;;;;;;;;;;;;;;24.75;97.26;101241.97;5059826;28;19916;-59
2023/08/19 08:43:36;;;;;;;;;;;;;;;24.73;97.85;101251.81;5057557;28;19947;-59
2023/08/19 08:46:02;;;;;;;;;;;;;;;24.72;97.09;101250.91;5058127;28;19929;-60
2023/08/19 08:48:29;;;;;;;;;;;;;;;24.70;97.51;101234.09;5058588;28;19931;-59
2023/08/19 08:50:55;;;;;;;;;;;;;;;24.70;97.62;101244.75;5056490;28;19933;-59
2023/08/19 08:53:20;;;;;;;;;;;;;;;24.71;97.42;101240.28;5061670;28;20114;-60
2023/08/19 08:55:46;;;;;;;;;;;;;;;24.71;96.82;101245.63;5059870;28;20193;-60
2023/08/19 08:58:11;;;;;;;;;;;;;;;24.69;97.31;101256.31;5060742;28;20081;-59
2023/08/19 09:00:37;;;;;;;;;;;;;;;24.70;97.53;101265.22;5060915;28;20082;-59
2023/08/19 09:03:04;;;;;;;;;;;;;;;24.73;96.94;101267.78;5061125;28;19916;-59
2023/08/19 09:05:29;;;;;;;;;;;;;;;24.75;96.87;101271.28;5060606;28;20030;-59
2023/08/19 09:07:55;;;;;;;;;;;;;;;24.72;97.18;101274.03;5056005;28;19920;-60
2023/08/19 09:10:23;;;;;;;;;;;;;;;24.74;97.06;101280.22;5060979;28;19915;-59
2023/08/19 09:12:52;;;;;;;;;;;;;;;24.79;96.26;101281.78;5063158;28;20085;-59
2023/08/19 09:15:18;;;;;;;;;;;;;;;24.82;97.05;101289.72;5059577;28;20051;-58
2023/08/19 09:17:44;;;;;;;;;;;;;;;24.86;96.92;101282.50;5058968;28;20188;-59
2023/08/19 09:20:11;;;;;;;;;;;;;;;24.93;96.36;101301.88;5060576;28;19928;-60
2023/08/19 09:22:41;;;;;;;;;;;;;;;25.00;96.23;101295.44;5060287;28;19915;-60
2023/08/19 09:25:06;;;;;;;;;;;;;;;25.05;95.51;101293.50;5061519;28;19909;-59
2023/08/19 09:27:32;;;;;;;;;;;;;;;25.05;95.79;101306.81;5056814;28;19955;-60
2023/08/19 09:29:58;;;;;;;;;;;;;;;25.07;95.55;101313.00;5055029;28;19981;-60
2023/08/19 09:32:33;;;;;;;;;;;;;;;25.10;95.39;101318.25;5059860;28;19916;-59
2023/08/19 09:35:06;;;;;;;;;;;;;;;25.15;97.16;101320.78;5044338;28;20092;-59
2023/08/19 09:37:32;;;;;;;;;;;;;;;25.27;94.87;101315.06;5060466;28;19931;-59
2023/08/19 09:39:57;;;;;;;;;;;;;;;25.27;95.99;101319.53;5056996;28;19908;-59
2023/08/19 09:42:22;;;;;;;;;;;;;;;25.42;94.86;101324.44;5057577;28;19917;-58
2023/08/19 09:44:47;;;;;;;;;;;;;;;25.40;95.71;101325.41;5057900;28;19982;-59
2023/08/19 09:47:12;;;;;;;;;;;;;;;25.52;95.75;101330.38;5055892;28;19970;-59
2023/08/19 09:49:38;;;;;;;;;;;;;;;25.61;94.29;101326.53;5054917;28;19908;-59
2023/08/19 09:52:03;;;;;;;;;;;;;;;25.72;95.76;101337.72;5059120;28;20181;-59
2023/08/19 09:54:28;;;;;;;;;;;;;;;25.81;94.94;101347.22;5059039;28;19908;-60
2023/08/19 09:56:55;;;;;;;;;;;;;;;25.91;94.69;101342.47;5043967;28;19989;-59
2023/08/19 09:59:20;;;;;;;;;;;;;;;26.00;93.32;101348.41;5061777;28;19915;-59
2023/08/19 10:01:46;;;;;;;;;;;;;;;25.94;93.50;101353.94;5058721;28;19932;-60
2023/08/19 10:04:11;;;;;;;;;;;;;;;25.91;94.61;101355.81;5059579;28;19916;-59
2023/08/19 10:06:39;;;;;;;;;;;;;;;25.96;93.26;101365.44;5059609;28;19912;-59
2023/08/19 10:09:06;;;;;;;;;;;;;;;26.03;92.32;101363.47;5057178;28;19925;-59
2023/08/19 10:11:33;;;;;;;;;;;;;;;25.95;91.31;101370.81;5058748;28;19983;-60
2023/08/19 10:13:59;;;;;;;;;;;;;;;25.92;90.25;101365.56;5061475;28;19939;-59
2023/08/19 10:16:25;;;;;;;;;;;;;;;25.79;91.53;101368.63;5059269;28;19920;-59
2023/08/19 10:18:51;;;;;;;;;;;;;;;25.78;92.69;101363.34;5062723;28;19912;-59
2023/08/19 10:21:17;;;;;;;;;;;;;;;25.83;93.13;101375.63;5060920;28;19908;-59
2023/08/19 10:23:44;;;;;;;;;;;;;;;25.80;93.44;101378.41;5060800;28;19915;-59
2023/08/19 10:26:09;;;;;;;;;;;;;;;25.78;93.79;101388.25;5058564;28;20058;-59
2023/08/19 10:28:34;;;;;;;;;;;;;;;25.88;94.83;101388.81;5061542;28;20051;-60
2023/08/19 10:31:07;;;;;;;;;;;;;;;25.93;93.39;101394.91;5059985;28;19928;-59
2023/08/19 10:33:41;;;;;;;;;;;;;;;26.02;94.35;101385.75;5061950;28;19932;-59
2023/08/19 10:36:07;;;;;;;;;;;;;;;26.02;93.75;101394.63;5059936;28;19924;-60
2023/08/19 10:38:40;;;;;;;;;;;;;;;26.03;94.09;101395.53;5056593;28;20245;-60
2023/08/19 10:41:14;;;;;;;;;;;;;;;26.07;94.09;101396.28;5055366;28;19963;-60
2023/08/19 10:43:47;;;;;;;;;;;;;;;26.21;92.61;101399.38;5060770;28;19943;-59
2023/08/19 10:46:15;;;;;;;;;;;;;;;26.23;92.61;101412.69;5061984;28;19975;-58
2023/08/19 10:48:44;;;;;;;;;;;;;;;26.30;89.13;101408.88;5060497;28;20075;-59
2023/08/19 10:51:09;;;;;;;;;;;;;;;26.12;90.45;101421.91;5060116;28;19913;-59
2023/08/19 10:53:35;;;;;;;;;;;;;;;26.01;91.46;101429.41;5061713;28;19981;-59
2023/08/19 10:56:01;;;;;;;;;;;;;;;25.99;91.33;101425.88;5061546;28;19912;-58
2023/08/19 10:58:26;;;;;;;;;;;;;;;25.90;90.89;101440.41;5059954;28;19965;-60
2023/08/19 11:00:51;;;;;;;;;;;;;;;25.76;92.54;101447.94;5060699;28;19935;-60
2023/08/19 11:03:17;;;;;;;;;;;;;;;25.75;90.10;101446.19;5043049;28;20144;-60
2023/08/19 11:05:49;;;;;;;;;;;;;;;25.55;91.69;101446.78;5060236;28;19932;-60
2023/08/19 11:08:15;;;;;;;;;;;;;;;25.45;92.95;101457.75;5060740;28;19909;-60
2023/08/19 11:10:43;;;;;;;;;;;;;;;25.40;93.45;101453.44;5061406;28;19916;-60
2023/08/19 11:13:08;;;;;;;;;;;;;;;25.47;92.46;101457.69;5058037;28;19909;-60
2023/08/19 11:15:34;;;;;;;;;;;;;;;25.42;91.51;101473.84;5059124;28;20196;-59
2023/08/19 11:17:59;;;;;;;;;;;;;;;25.32;91.28;101493.69;5059482;28;19909;-60
2023/08/19 11:20:27;;;;;;;;;;;;;;;25.23;91.67;101504.56;5061362;28;19924;-59
2023/08/19 11:22:52;;;;;;;;;;;;;;;25.21;90.32;101506.41;5059563;28;20210;-59
2023/08/19 11:25:18;;;;;;;;;;;;;;;25.07;90.73;101515.66;5061068;28;19909;-59
2023/08/19 11:27:43;;;;;;;;;;;;;;;25.02;91.84;101532.69;5059698;28;19913;-60
2023/08/19 11:30:10;;;;;;;;;;;;;;;24.99;91.09;101545.19;5057718;28;19909;-59
2023/08/19 11:32:35;;;;;;;;;;;;;;;24.98;90.91;101558.53;5058639;28;19970;-59
2023/08/19 11:35:01;;;;;;;;;;;;;;;25.09;89.66;101571.63;5059042;28;19916;-60
2023/08/19 11:37:29;;;;;;;;;;;;;;;24.80;91.50;101568.75;5059034;28;19913;-59
2023/08/19 11:39:55;;;;;;;;;;;;;;;24.83;92.16;101575.81;5042384;28;19972;-59
2023/08/19 11:42:20;;;;;;;;;;;;;;;24.63;94.05;101576.28;5061409;28;19963;-59
2023/08/19 11:44:45;;;;;;;;;;;;;;;24.43;95.12;101584.69;5059617;28;20088;-59
2023/08/19 11:47:11;;;;;;;;;;;;;;;24.37;96.52;101585.72;5061243;28;20189;-59
2023/08/19 11:49:36;;;;;;;;;;;;;;;24.24;96.73;101602.88;5058866;28;20376;-58
2023/08/19 11:52:01;;;;;;;;;;;;;;;24.16;96.40;101599.50;5058563;28;20158;-59
2023/08/19 11:54:26;;;;;;;;;;;;;;;24.17;96.62;101590.59;5058798;28;19943;-59
2023/08/19 11:56:53;;;;;;;;;;;;;;;24.23;97.39;101582.47;5061403;28;19913;-58
2023/08/19 11:59:18;;;;;;;;;;;;;;;24.20;95.45;101601.19;5058409;28;19909;-59
2023/08/19 12:01:47;;;;;;;;;;;;;;;24.09;95.33;101604.09;5059895;28;19931;-59
2023/08/19 12:04:16;;;;;;;;;;;;;;;24.01;95.76;101601.56;5057876;28;19924;-59
2023/08/19 12:06:46;;;;;;;;;;;;;;;23.99;96.24;101618.50;5061482;28;19908;-59
2023/08/19 12:09:11;;;;;;;;;;;;;;;24.01;94.58;101620.19;5062181;28;20278;-59
2023/08/19 12:11:37;;;;;;;;;;;;;;;23.98;93.62;101614.94;5064471;28;19928;-59
2023/08/19 12:14:02;;;;;;;;;;;;;;;23.95;93.69;101609.69;5063953;28;19912;-59
2023/08/19 12:16:28;;;;;;;;;;;;;;;23.98;93.03;101628.25;5062995;28;19974;-60
2023/08/19 12:18:53;;;;;;;;;;;;;;;23.88;94.42;101650.63;5064192;28;20162;-59
2023/08/19 12:21:18;;;;;;;;;;;;;;;23.92;93.48;101641.69;5063852;28;19908;-59
2023/08/19 12:23:43;;;;;;;;;;;;;;;23.87;94.25;101635.56;5061445;28;20136;-60
2023/08/19 12:26:09;;;;;;;;;;;;;;;23.95;93.73;101633.63;5058120;28;19988;-59